Time;durP1;ratioP1;P1;durP2;ratioP2;P2;SDS_P1;SDS_P2;PMS_P1;PMS_P2;Temp;Humidity;BMP_temperature;BMP_pressure;BME280_temperature;BME280_humidity;BME280_pressure;Samples;Min_cycle;Max_cycle;Signal;HPM_P1;HPM_P2
2023/01/27 04:08:47;;;;;;;30.03;19.20;;;0.00;99.90;;;;;;4994857;28;20214;-77
2023/01/27 04:14:02;;;;;;;34.07;24.23;;;0.10;99.90;;;;;;4978388;28;20212;-77
2023/01/27 04:16:29;;;;;;;36.20;26.60;;;0.10;99.90;;;;;;4958203;28;20232;-77
2023/01/27 04:18:55;;;;;;;42.57;27.83;;;0.10;99.90;;;;;;4974748;28;20188;-77
2023/01/27 04:21:22;;;;;;;36.23;25.93;;;0.10;99.90;;;;;;4975758;28;20208;-77
2023/01/27 04:23:47;;;;;;;31.00;24.80;;;0.10;99.90;;;;;;4975743;28;20194;-77
2023/01/27 04:26:13;;;;;;;31.30;22.90;;;0.10;99.90;;;;;;4975499;28;20212;-77
2023/01/27 04:28:39;;;;;;;30.37;24.83;;;0.10;99.90;;;;;;4957499;28;20192;-77
2023/01/27 04:31:05;;;;;;;37.37;25.20;;;0.10;99.90;;;;;;4975326;28;20547;-77
2023/01/27 04:33:30;;;;;;;33.87;25.43;;;0.00;99.90;;;;;;4975131;28;20185;-77
2023/01/27 04:35:56;;;;;;;32.53;24.53;;;0.00;99.90;;;;;;4957937;28;20324;-77
2023/01/27 04:38:22;;;;;;;30.17;23.03;;;0.00;99.90;;;;;;4975217;28;20184;-76
2023/01/27 04:40:48;;;;;;;31.77;23.83;;;0.00;99.90;;;;;;4975945;28;20264;-77
2023/01/27 04:43:13;;;;;;;27.03;23.10;;;0.00;99.90;;;;;;4975381;28;20185;-77
2023/01/27 04:45:39;;;;;;;30.43;22.63;;;0.00;99.90;;;;;;4975308;28;20215;-77
2023/01/27 04:48:05;;;;;;;31.07;21.97;;;0.00;99.90;;;;;;4974781;28;20200;-77
2023/01/27 04:50:32;;;;;;;30.13;20.40;;;0.00;99.90;;;;;;4958187;28;20247;-77
2023/01/27 04:52:58;;;;;;;26.67;18.77;;;0.00;99.90;;;;;;4956925;28;20177;-77
2023/01/27 04:55:23;;;;;;;26.00;18.33;;;0.00;99.90;;;;;;4944765;28;20198;-76
2023/01/27 04:57:49;;;;;;;27.40;18.20;;;0.00;99.90;;;;;;4973800;28;20194;-78
2023/01/27 05:00:15;;;;;;;29.57;17.53;;;0.00;99.90;;;;;;4973961;28;20182;-77
2023/01/27 05:02:41;;;;;;;25.20;17.30;;;0.10;99.90;;;;;;4956797;28;20223;-77
2023/01/27 05:05:07;;;;;;;22.97;17.53;;;0.10;99.90;;;;;;4957358;28;20201;-76
2023/01/27 05:07:33;;;;;;;24.07;16.67;;;0.10;99.90;;;;;;4961129;28;20177;-76
2023/01/27 05:09:59;;;;;;;24.20;15.57;;;0.20;99.90;;;;;;4956416;28;20192;-76
2023/01/27 05:12:24;;;;;;;20.83;14.83;;;0.20;99.90;;;;;;4955896;28;20691;-76
2023/01/27 05:14:50;;;;;;;21.43;15.43;;;0.20;99.90;;;;;;4955485;28;20192;-76
2023/01/27 05:17:16;;;;;;;23.47;15.40;;;0.20;99.90;;;;;;4971568;28;20196;-76
2023/01/27 05:19:42;;;;;;;22.27;15.47;;;0.10;99.90;;;;;;4951559;28;20200;-76
2023/01/27 05:22:10;;;;;;;20.87;14.53;;;0.20;99.90;;;;;;4955633;28;20697;-76
2023/01/27 05:24:39;;;;;;;24.83;16.37;;;0.20;99.90;;;;;;4941795;28;20219;-76
2023/01/27 05:27:06;;;;;;;26.00;15.03;;;0.20;99.90;;;;;;4953096;28;20244;-76
2023/01/27 05:29:32;;;;;;;20.60;15.43;;;0.30;99.90;;;;;;4971638;28;20185;-76
2023/01/27 05:31:58;;;;;;;22.17;15.70;;;0.20;99.90;;;;;;4973401;28;20301;-76
2023/01/27 05:34:24;;;;;;;17.63;13.70;;;0.20;99.90;;;;;;4974288;28;20269;-76
2023/01/27 05:36:50;;;;;;;17.93;13.43;;;0.20;99.90;;;;;;4957158;28;20207;-76
2023/01/27 05:39:16;;;;;;;19.53;13.83;;;0.30;99.90;;;;;;4946227;29;20269;-77
2023/01/27 05:41:42;;;;;;;19.67;13.83;;;0.30;99.90;;;;;;4936192;29;20232;-76
2023/01/27 05:44:11;;;;;;;17.40;13.73;;;0.20;99.90;;;;;;4936914;28;20189;-76
2023/01/27 05:46:38;;;;;;;16.97;14.77;;;0.20;99.90;;;;;;4972837;28;20208;-77
2023/01/27 05:49:04;;;;;;;20.17;15.07;;;0.20;99.90;;;;;;4972886;28;20531;-76
2023/01/27 05:51:33;;;;;;;18.87;15.73;;;0.30;99.90;;;;;;4971692;28;20208;-77
2023/01/27 05:53:58;;;;;;;22.93;16.10;;;0.20;99.90;;;;;;4955355;28;20444;-77
2023/01/27 05:56:25;;;;;;;19.67;15.73;;;0.30;99.90;;;;;;4955704;28;20288;-77
2023/01/27 05:58:53;;;;;;;23.90;17.73;;;0.30;99.90;;;;;;4956380;28;20185;-77
2023/01/27 06:01:22;;;;;;;17.67;15.83;;;0.30;99.90;;;;;;4954721;28;20728;-76
2023/01/27 06:03:48;;;;;;;19.27;15.97;;;0.20;99.90;;;;;;4973545;28;20693;-70
2023/01/27 06:06:17;;;;;;;21.80;17.93;;;0.30;99.90;;;;;;4971344;28;20788;-70
2023/01/27 06:08:44;;;;;;;18.57;16.40;;;0.30;99.90;;;;;;4953980;28;20219;-69
2023/01/27 06:11:10;;;;;;;21.30;17.70;;;0.20;99.90;;;;;;4971570;28;20288;-70
2023/01/27 06:13:39;;;;;;;20.63;15.67;;;0.20;99.90;;;;;;4971243;28;20731;-69
2023/01/27 06:16:08;;;;;;;19.10;15.13;;;0.10;99.90;;;;;;4971390;28;20191;-69
2023/01/27 06:18:34;;;;;;;20.23;16.37;;;0.10;99.90;;;;;;4954328;28;20187;-69
2023/01/27 06:21:01;;;;;;;19.13;17.20;;;0.10;99.90;;;;;;4971195;28;20216;-73
2023/01/27 06:23:28;;;;;;;17.93;15.93;;;0.20;99.90;;;;;;4969760;28;20629;-72
2023/01/27 06:25:54;;;;;;;18.47;16.00;;;0.20;99.90;;;;;;4971179;28;20213;-71
2023/01/27 06:28:21;;;;;;;21.57;17.00;;;0.20;99.90;;;;;;4970367;28;20181;-71
2023/01/27 06:30:46;;;;;;;21.10;17.10;;;0.30;99.90;;;;;;4970202;28;20204;-71
2023/01/27 06:33:13;;;;;;;18.63;16.47;;;0.30;99.90;;;;;;4971442;28;20186;-71
2023/01/27 06:35:39;;;;;;;19.17;14.73;;;0.30;99.90;;;;;;4955859;28;20419;-72
2023/01/27 06:38:13;;;;;;;18.03;14.30;;;0.30;99.90;;;;;;4974064;28;20739;-71
2023/01/27 06:40:39;;;;;;;17.30;13.13;;;0.30;99.90;;;;;;4975096;28;20288;-71
2023/01/27 06:43:11;;;;;;;18.67;14.10;;;0.30;99.90;;;;;;4957702;28;20260;-71
2023/01/27 06:45:37;;;;;;;19.07;15.10;;;0.30;99.90;;;;;;4975057;28;20224;-71
2023/01/27 06:48:03;;;;;;;19.40;14.50;;;0.30;99.90;;;;;;4973899;28;20181;-71
2023/01/27 06:50:29;;;;;;;19.90;13.67;;;0.30;99.90;;;;;;4973731;28;20196;-70
2023/01/27 06:53:04;;;;;;;16.47;13.77;;;0.30;99.90;;;;;;4975009;28;20177;-70
2023/01/27 06:55:29;;;;;;;16.97;12.07;;;0.20;99.90;;;;;;4957953;28;20187;-70
2023/01/27 06:57:55;;;;;;;18.40;14.07;;;0.30;99.90;;;;;;4974761;28;20182;-68
2023/01/27 07:00:21;;;;;;;18.53;13.10;;;0.30;99.90;;;;;;4958155;28;20216;-70
2023/01/27 07:02:47;;;;;;;20.63;14.03;;;0.30;99.90;;;;;;4975141;28;20564;-70
2023/01/27 07:05:13;;;;;;;18.23;14.60;;;0.30;99.90;;;;;;4954788;28;20215;-70
2023/01/27 07:07:39;;;;;;;21.83;15.00;;;0.40;99.90;;;;;;4963776;28;20196;-70
2023/01/27 07:10:06;;;;;;;18.57;14.30;;;0.40;99.90;;;;;;4975269;28;20181;-70
2023/01/27 07:12:36;;;;;;;16.83;13.70;;;0.40;99.90;;;;;;4964673;28;20272;-71
2023/01/27 07:15:06;;;;;;;19.33;14.33;;;0.40;99.90;;;;;;4940099;28;20603;-71
2023/01/27 07:17:33;;;;;;;20.90;15.07;;;0.40;99.90;;;;;;4962845;28;20182;-70
2023/01/27 07:19:59;;;;;;;20.23;14.70;;;0.40;99.90;;;;;;4974952;28;20187;-69
2023/01/27 07:22:25;;;;;;;19.97;14.73;;;0.30;99.90;;;;;;4974919;28;20210;-69
2023/01/27 07:24:53;;;;;;;21.00;14.73;;;0.40;99.90;;;;;;4957649;28;20675;-70
2023/01/27 07:27:19;;;;;;;18.97;14.97;;;0.30;99.90;;;;;;4956919;28;20198;-70
2023/01/27 07:29:45;;;;;;;21.37;15.03;;;0.30;99.90;;;;;;4971061;28;20174;-70
2023/01/27 07:32:11;;;;;;;21.20;15.30;;;0.30;99.90;;;;;;4938116;29;20689;-70
2023/01/27 07:34:36;;;;;;;22.80;16.30;;;0.30;99.90;;;;;;4955391;29;20263;-69
2023/01/27 07:37:04;;;;;;;23.53;16.63;;;0.30;99.90;;;;;;4971374;28;20741;-70
2023/01/27 07:39:32;;;;;;;25.40;16.40;;;0.30;99.90;;;;;;4974463;28;20197;-71
2023/01/27 07:42:00;;;;;;;22.43;16.83;;;0.30;99.90;;;;;;4973983;28;20201;-70
2023/01/27 07:44:26;;;;;;;23.53;18.23;;;0.30;99.90;;;;;;4957088;28;20257;-70
2023/01/27 07:46:52;;;;;;;22.57;16.83;;;0.40;99.90;;;;;;4972980;28;20221;-70
2023/01/27 07:49:18;;;;;;;25.23;16.67;;;0.30;99.90;;;;;;4975662;28;20205;-70
2023/01/27 07:51:44;;;;;;;24.70;16.70;;;0.30;99.90;;;;;;4974224;28;20573;-70
2023/01/27 07:54:10;;;;;;;27.43;17.90;;;0.30;99.90;;;;;;4956637;28;20661;-71
2023/01/27 07:56:36;;;;;;;29.50;20.60;;;0.40;99.90;;;;;;4974168;28;20654;-71
2023/01/27 07:59:03;;;;;;;24.70;18.53;;;0.40;99.90;;;;;;4973963;28;20185;-71
2023/01/27 08:01:28;;;;;;;23.70;15.97;;;0.30;99.90;;;;;;4974157;28;20220;-71
2023/01/27 08:03:54;;;;;;;22.93;16.23;;;0.30;99.90;;;;;;4973467;28;20709;-70
2023/01/27 08:06:20;;;;;;;24.70;16.90;;;0.30;99.90;;;;;;4973774;28;20212;-69
2023/01/27 08:08:47;;;;;;;24.57;16.73;;;0.30;99.90;;;;;;4956395;28;20316;-69
2023/01/27 08:11:14;;;;;;;22.07;16.03;;;0.30;99.90;;;;;;4973686;28;20212;-69
2023/01/27 08:13:41;;;;;;;26.40;18.20;;;0.40;99.90;;;;;;4956480;28;20180;-69
2023/01/27 08:16:10;;;;;;;24.27;16.50;;;0.40;99.90;;;;;;4973907;28;20203;-71
2023/01/27 08:18:35;;;;;;;26.27;17.80;;;0.40;99.90;;;;;;4973354;28;20197;-71
2023/01/27 08:21:04;;;;;;;27.47;16.30;;;0.40;99.90;;;;;;4973963;28;20224;-68
2023/01/27 08:23:31;;;;;;;28.60;18.70;;;0.30;99.90;;;;;;4973500;28;20198;-71
2023/01/27 08:25:59;;;;;;;27.87;19.43;;;0.20;99.90;;;;;;4973826;28;20214;-69
2023/01/27 08:28:26;;;;;;;17.53;13.50;;;0.20;99.90;;;;;;4973420;28;20911;-69
2023/01/27 08:30:52;;;;;;;28.13;17.33;;;0.30;99.90;;;;;;4970361;28;20227;-70
2023/01/27 08:33:22;;;;;;;26.93;17.13;;;0.40;99.90;;;;;;4959377;28;20311;-69
2023/01/27 08:35:49;;;;;;;24.67;19.50;;;0.40;99.90;;;;;;4971706;28;20191;-70
2023/01/27 08:38:17;;;;;;;26.90;18.13;;;0.50;99.90;;;;;;4973177;28;20248;-69
2023/01/27 08:40:44;;;;;;;26.10;17.90;;;0.60;99.90;;;;;;4973341;28;20189;-70
2023/01/27 08:43:11;;;;;;;28.00;17.10;;;0.60;99.90;;;;;;4968645;28;20192;-69
2023/01/27 08:45:38;;;;;;;27.63;17.53;;;0.60;99.90;;;;;;4958030;28;20209;-69
2023/01/27 08:48:05;;;;;;;26.90;16.37;;;0.70;99.90;;;;;;4953514;29;20180;-70
2023/01/27 08:50:32;;;;;;;32.77;17.10;;;0.70;99.90;;;;;;4966276;28;20177;-69
2023/01/27 08:52:58;;;;;;;24.90;16.63;;;0.70;99.90;;;;;;4955084;28;20185;-69
2023/01/27 08:55:28;;;;;;;21.07;14.03;;;0.70;99.90;;;;;;4955909;28;20200;-70
2023/01/27 08:57:54;;;;;;;24.83;15.80;;;0.70;99.90;;;;;;4972207;28;20762;-69
2023/01/27 09:00:21;;;;;;;27.50;18.20;;;0.70;99.90;;;;;;4956613;28;20260;-70
2023/01/27 09:02:47;;;;;;;25.43;17.53;;;0.80;99.90;;;;;;4960420;28;20717;-69
2023/01/27 09:05:13;;;;;;;27.20;18.23;;;0.80;99.90;;;;;;4972351;28;20213;-70
2023/01/27 09:07:39;;;;;;;26.73;18.57;;;0.80;99.90;;;;;;4972507;28;20188;-70
2023/01/27 09:10:05;;;;;;;25.67;18.00;;;0.80;99.90;;;;;;4972961;28;20185;-70
2023/01/27 09:12:31;;;;;;;26.50;18.63;;;0.80;99.90;;;;;;4973013;28;20213;-70
2023/01/27 09:14:57;;;;;;;26.50;19.43;;;0.90;99.90;;;;;;4972646;28;20187;-70
2023/01/27 09:17:26;;;;;;;29.20;19.87;;;1.00;99.90;;;;;;4955394;28;20181;-70
2023/01/27 09:19:52;;;;;;;32.83;21.43;;;0.90;99.90;;;;;;4972880;28;20276;-70
2023/01/27 09:22:18;;;;;;;30.00;20.10;;;0.90;99.90;;;;;;4971366;28;20288;-70
2023/01/27 09:24:44;;;;;;;26.80;17.77;;;0.90;99.90;;;;;;4970915;28;20244;-69
2023/01/27 09:27:10;;;;;;;27.13;18.63;;;0.80;99.90;;;;;;4972479;28;20271;-69
2023/01/27 09:29:35;;;;;;;25.10;17.00;;;0.90;99.90;;;;;;4971600;28;20185;-69
2023/01/27 09:32:02;;;;;;;29.10;18.13;;;0.90;99.90;;;;;;4972691;28;20233;-69
2023/01/27 09:34:29;;;;;;;25.90;17.50;;;0.90;99.90;;;;;;4955172;28;20182;-71
2023/01/27 09:37:05;;;;;;;24.70;17.33;;;0.90;99.90;;;;;;4972332;28;20202;-70
2023/01/27 09:39:34;;;;;;;22.87;14.30;;;1.00;99.90;;;;;;4972368;28;20182;-69
2023/01/27 09:42:21;;;;;;;21.43;14.33;;;1.00;99.90;;;;;;4972025;28;20304;-69
2023/01/27 09:45:26;;;;;;;19.13;13.83;;;1.00;99.90;;;;;;4972224;28;20299;-69
2023/01/27 09:48:11;;;;;;;19.90;13.10;;;1.10;99.90;;;;;;4955203;28;20195;-69
2023/01/27 09:50:49;;;;;;;19.93;13.57;;;1.10;99.90;;;;;;4972375;28;20183;-69
2023/01/27 09:53:37;;;;;;;18.70;13.67;;;1.00;99.90;;;;;;4972275;28;20183;-70
2023/01/27 09:56:37;;;;;;;14.37;12.20;;;1.10;99.90;;;;;;4959503;28;20218;-70
2023/01/27 09:59:17;;;;;;;20.60;13.60;;;1.20;99.90;;;;;;4972237;28;20625;-70
2023/01/27 10:01:46;;;;;;;18.90;13.43;;;1.40;99.90;;;;;;4951124;28;20272;-71
2023/01/27 10:04:39;;;;;;;17.37;13.50;;;1.40;99.90;;;;;;4953853;28;20219;-70
2023/01/27 10:07:35;;;;;;;15.77;12.47;;;1.50;99.90;;;;;;4954560;28;20213;-71
2023/01/27 10:10:49;;;;;;;16.27;14.57;;;1.60;99.90;;;;;;4971485;28;20183;-71
2023/01/27 10:13:42;;;;;;;13.30;11.03;;;1.50;99.90;;;;;;4949904;29;20551;-71
2023/01/27 10:16:36;;;;;;;13.10;11.80;;;1.40;99.90;;;;;;4995272;22;20318;-69
2023/01/27 10:19:21;;;;;;;13.83;12.43;;;1.40;99.90;;;;;;5025447;28;20177;-69
2023/01/27 10:22:01;;;;;;;12.80;11.50;;;1.40;99.90;;;;;;5014599;28;20184;-69
2023/01/27 10:24:43;;;;;;;16.10;14.17;;;1.30;99.90;;;;;;5029428;28;20183;-69
2023/01/27 10:27:23;;;;;;;17.60;14.03;;;1.20;99.90;;;;;;5028450;28;20217;-69
2023/01/27 10:30:01;;;;;;;15.50;13.43;;;1.30;99.90;;;;;;5030935;28;20182;-68
2023/01/27 10:32:40;;;;;;;15.40;13.20;;;1.40;99.90;;;;;;5030657;28;20223;-67
2023/01/27 10:35:23;;;;;;;12.70;11.40;;;1.50;99.90;;;;;;4995143;28;20176;-68
2023/01/27 10:38:06;;;;;;;15.80;12.97;;;1.60;99.90;;;;;;5010180;28;20213;-68
2023/01/27 10:40:50;;;;;;;14.73;11.83;;;1.60;99.90;;;;;;4993489;28;20190;-68
2023/01/27 10:43:22;;;;;;;12.23;9.73;;;1.70;99.90;;;;;;5011317;28;20180;-69
2023/01/27 10:46:26;;;;;;;18.43;12.53;;;1.60;99.90;;;;;;4993947;28;20234;-70
2023/01/27 10:48:57;;;;;;;11.87;10.67;;;1.50;99.90;;;;;;5017062;28;20595;-69
2023/01/27 10:51:37;;;;;;;13.13;10.87;;;1.50;99.90;;;;;;5009677;28;20195;-69
2023/01/27 10:54:31;;;;;;;14.33;10.83;;;1.60;99.90;;;;;;5019454;28;20251;-70
2023/01/27 10:57:13;;;;;;;14.53;12.17;;;1.50;99.90;;;;;;5027421;28;20203;-66
2023/01/27 11:00:05;;;;;;;12.83;10.67;;;1.40;99.90;;;;;;5020329;28;20283;-67
2023/01/27 11:02:52;;;;;;;11.87;10.60;;;1.40;99.90;;;;;;5030415;28;20268;-69
2023/01/27 11:05:23;;;;;;;12.53;10.60;;;1.50;99.90;;;;;;5027993;28;20537;-69
2023/01/27 11:07:58;;;;;;;14.17;11.00;;;1.50;99.90;;;;;;5029941;28;20229;-69
2023/01/27 11:10:35;;;;;;;11.50;10.30;;;1.50;99.90;;;;;;5030363;28;20608;-69
2023/01/27 11:13:03;;;;;;;12.23;10.93;;;1.60;99.90;;;;;;5029924;28;20183;-69
2023/01/27 11:15:32;;;;;;;12.53;10.70;;;1.70;99.90;;;;;;5026250;28;20184;-69
2023/01/27 11:18:22;;;;;;;14.10;11.70;;;1.70;99.90;;;;;;4992497;28;20187;-69
2023/01/27 11:21:20;;;;;;;12.20;10.23;;;1.70;99.90;;;;;;4993041;28;20184;-69
2023/01/27 11:23:52;;;;;;;10.90;9.20;;;1.80;99.90;;;;;;5014021;28;20175;-69
2023/01/27 11:26:43;;;;;;;14.37;10.87;;;1.80;99.90;;;;;;5013845;28;20222;-70
2023/01/27 11:29:44;;;;;;;14.73;11.43;;;1.90;99.90;;;;;;5014815;28;20284;-69
2023/01/27 11:32:16;;;;;;;13.97;11.30;;;2.00;99.90;;;;;;5013950;28;20187;-68
2023/01/27 11:35:09;;;;;;;12.83;11.20;;;2.10;99.90;;;;;;5025402;28;20271;-70
2023/01/27 11:37:44;;;;;;;19.77;14.27;;;2.10;99.90;;;;;;5029157;28;20650;-69
2023/01/27 11:40:41;;;;;;;12.70;11.40;;;2.20;99.90;;;;;;5015906;28;20187;-68
2023/01/27 11:43:16;;;;;;;13.70;11.83;;;2.20;99.90;;;;;;5028176;28;20278;-68
2023/01/27 11:45:44;;;;;;;14.33;12.20;;;2.00;99.90;;;;;;4995808;28;20684;-69
2023/01/27 11:48:14;;;;;;;13.73;12.30;;;2.00;99.90;;;;;;5012920;28;20645;-68
2023/01/27 11:50:41;;;;;;;14.43;12.10;;;2.10;99.90;;;;;;4995924;28;20712;-69
2023/01/27 11:53:24;;;;;;;13.40;10.70;;;2.20;99.90;;;;;;5008274;28;20213;-73
2023/01/27 11:55:55;;;;;;;13.90;11.17;;;2.30;99.90;;;;;;5013314;28;20340;-69
2023/01/27 11:58:25;;;;;;;14.67;11.83;;;2.30;99.90;;;;;;5012386;28;20201;-69
2023/01/27 12:00:56;;;;;;;13.43;11.43;;;2.40;99.90;;;;;;5026436;28;20213;-77
2023/01/27 12:03:46;;;;;;;14.47;11.63;;;2.40;99.90;;;;;;5014268;28;20573;-74
2023/01/27 12:06:16;;;;;;;14.30;10.97;;;2.40;99.90;;;;;;5034040;28;20223;-72
2023/01/27 12:08:45;;;;;;;13.07;11.20;;;2.40;99.90;;;;;;5034465;28;20192;-72
2023/01/27 12:11:23;;;;;;;16.13;11.97;;;2.40;99.90;;;;;;5036239;28;20174;-73
2023/01/27 12:13:55;;;;;;;12.50;11.20;;;2.40;99.90;;;;;;5010152;28;21008;-65
2023/01/27 12:16:26;;;;;;;11.97;10.60;;;2.50;99.90;;;;;;5012955;28;20222;-66
2023/01/27 12:19:02;;;;;;;13.50;11.13;;;2.50;99.90;;;;;;5023075;28;20365;-69
2023/01/27 12:21:41;;;;;;;14.97;9.60;;;2.30;99.90;;;;;;5032935;28;20194;-69
2023/01/27 12:24:35;;;;;;;12.80;10.70;;;2.20;99.90;;;;;;5026965;28;20661;-69
2023/01/27 12:27:03;;;;;;;15.27;12.23;;;2.10;99.90;;;;;;5012362;28;20244;-69
2023/01/27 12:29:50;;;;;;;16.07;11.23;;;2.10;99.90;;;;;;5018800;28;20166;-71
2023/01/27 12:32:21;;;;;;;13.07;11.63;;;2.00;99.90;;;;;;5013709;28;20182;-69
2023/01/27 12:34:55;;;;;;;13.40;11.37;;;2.00;99.90;;;;;;5011707;28;20183;-69
2023/01/27 12:37:31;;;;;;;14.33;11.27;;;1.90;99.90;;;;;;5011827;28;20203;-69
2023/01/27 12:40:06;;;;;;;11.97;10.60;;;1.90;99.90;;;;;;5012234;28;20182;-69
2023/01/27 12:42:36;;;;;;;15.60;12.37;;;1.90;99.90;;;;;;5012192;28;20582;-69
2023/01/27 12:45:25;;;;;;;12.33;10.60;;;1.90;99.90;;;;;;5026402;28;20270;-69
2023/01/27 12:48:18;;;;;;;15.07;11.67;;;1.90;99.90;;;;;;5031634;28;20209;-69
2023/01/27 12:50:50;;;;;;;18.73;14.23;;;1.90;99.90;;;;;;4995493;28;20721;-72
2023/01/27 12:53:19;;;;;;;20.77;13.90;;;2.00;99.90;;;;;;5012299;28;20191;-69
2023/01/27 12:56:04;;;;;;;15.53;12.80;;;2.10;99.90;;;;;;5001537;28;20591;-69
2023/01/27 12:58:54;;;;;;;17.83;12.33;;;2.20;99.90;;;;;;5031013;28;20196;-70
2023/01/27 13:01:26;;;;;;;15.90;12.40;;;2.30;99.90;;;;;;5014197;28;20186;-69
2023/01/27 13:03:55;;;;;;;16.43;13.23;;;2.30;99.90;;;;;;5021939;28;20207;-70
2023/01/27 13:06:50;;;;;;;19.23;14.30;;;2.30;99.90;;;;;;5013568;28;20717;-70
2023/01/27 13:09:24;;;;;;;22.03;16.30;;;2.30;99.90;;;;;;5012066;28;20177;-70
2023/01/27 13:11:51;;;;;;;25.97;17.03;;;2.40;99.90;;;;;;5012410;28;20243;-69
2023/01/27 13:14:17;;;;;;;22.47;14.90;;;2.20;99.90;;;;;;5013392;28;20563;-70
2023/01/27 13:16:52;;;;;;;24.20;16.03;;;2.10;99.90;;;;;;5012250;28;20217;-70
2023/01/27 13:19:17;;;;;;;21.63;14.93;;;2.10;99.90;;;;;;5011546;28;20648;-70
2023/01/27 13:21:48;;;;;;;25.67;17.57;;;2.10;99.90;;;;;;4998064;28;20295;-69
2023/01/27 13:24:26;;;;;;;29.57;18.77;;;2.10;99.90;;;;;;5022724;28;20253;-69
2023/01/27 13:26:54;;;;;;;25.10;17.63;;;2.00;99.90;;;;;;5004615;28;20215;-69
2023/01/27 13:29:25;;;;;;;27.17;17.83;;;2.00;99.90;;;;;;5031006;28;20179;-70
2023/01/27 13:32:02;;;;;;;28.20;18.13;;;2.00;99.90;;;;;;5031040;28;20203;-70
2023/01/27 13:34:35;;;;;;;28.30;18.07;;;2.00;99.90;;;;;;5030732;28;20191;-70
2023/01/27 13:37:22;;;;;;;33.43;18.60;;;2.00;99.90;;;;;;5030330;28;20212;-70
2023/01/27 13:40:13;;;;;;;28.87;18.83;;;2.00;99.90;;;;;;5013192;28;20189;-69
2023/01/27 13:42:53;;;;;;;28.43;17.37;;;1.90;99.90;;;;;;5026992;28;20205;-69
2023/01/27 13:45:38;;;;;;;28.53;16.93;;;1.60;99.90;;;;;;4993484;28;20259;-69
2023/01/27 13:48:36;;;;;;;26.63;15.57;;;1.50;99.90;;;;;;4993213;28;20184;-69
2023/01/27 13:51:05;;;;;;;25.83;16.53;;;1.60;99.90;;;;;;5006248;28;20222;-70
2023/01/27 13:53:32;;;;;;;30.17;17.17;;;1.60;99.90;;;;;;5021302;28;20191;-69
2023/01/27 13:56:06;;;;;;;26.27;16.60;;;1.60;99.90;;;;;;5030469;28;20285;-69
2023/01/27 13:59:06;;;;;;;21.40;16.03;;;1.60;99.90;;;;;;5030388;28;20188;-69
2023/01/27 14:01:52;;;;;;;26.10;14.60;;;1.60;99.90;;;;;;5030266;28;20240;-69
2023/01/27 14:05:03;;;;;;;16.53;10.80;;;1.60;99.90;;;;;;5013086;28;20729;-69
2023/01/27 14:08:12;;;;;;;23.43;15.13;;;1.30;99.90;;;;;;4987393;28;20710;-68
2023/01/27 14:10:44;;;;;;;22.57;16.07;;;1.20;99.90;;;;;;4985913;28;20659;-69
2023/01/27 14:13:31;;;;;;;26.77;16.70;;;1.30;99.90;;;;;;5034202;28;20185;-69
2023/01/27 14:16:19;;;;;;;25.03;16.37;;;1.30;99.90;;;;;;5017650;28;20227;-69
2023/01/27 14:18:56;;;;;;;27.90;18.70;;;1.40;99.90;;;;;;5010666;28;20552;-69
2023/01/27 14:21:25;;;;;;;23.53;16.10;;;1.40;99.90;;;;;;5011003;28;20183;-69
2023/01/27 14:24:19;;;;;;;23.83;16.23;;;1.40;99.90;;;;;;5022464;28;20267;-70
2023/01/27 14:26:49;;;;;;;27.27;17.00;;;1.50;99.90;;;;;;5012708;28;20218;-68
2023/01/27 14:29:34;;;;;;;22.93;15.37;;;1.50;99.90;;;;;;5030337;28;20282;-70
2023/01/27 14:32:13;;;;;;;21.57;16.67;;;1.40;99.90;;;;;;5030641;28;20175;-68
2023/01/27 14:34:49;;;;;;;21.33;17.20;;;1.40;99.90;;;;;;5012756;28;20177;-69
2023/01/27 14:37:21;;;;;;;21.13;15.77;;;1.40;99.90;;;;;;5009272;28;20217;-69
2023/01/27 14:39:58;;;;;;;19.83;15.87;;;1.50;99.90;;;;;;5010646;28;20216;-69
2023/01/27 14:42:54;;;;;;;21.70;15.27;;;1.50;99.90;;;;;;4993057;28;20220;-69
2023/01/27 14:45:33;;;;;;;20.00;15.60;;;1.50;99.90;;;;;;5010252;28;20240;-68
2023/01/27 14:48:21;;;;;;;22.33;15.90;;;1.50;99.90;;;;;;4992823;28;20241;-69
2023/01/27 14:51:13;;;;;;;20.73;15.03;;;1.60;99.90;;;;;;5020395;28;20688;-69
2023/01/27 14:54:13;;;;;;;22.20;15.50;;;1.70;99.90;;;;;;4992137;28;20192;-69
2023/01/27 14:57:08;;;;;;;22.57;14.77;;;1.70;99.90;;;;;;5031082;28;20210;-69
2023/01/27 15:00:15;;;;;;;19.47;14.93;;;1.70;99.90;;;;;;5033236;28;20215;-69
2023/01/27 15:02:43;;;;;;;17.77;14.47;;;1.70;99.90;;;;;;5013761;28;20185;-69
2023/01/27 15:05:18;;;;;;;18.53;15.03;;;1.70;99.90;;;;;;4996666;28;20173;-69
2023/01/27 15:08:08;;;;;;;18.07;14.23;;;1.70;99.90;;;;;;5013833;28;20203;-70
2023/01/27 15:10:39;;;;;;;17.70;14.00;;;1.70;99.90;;;;;;5022343;28;20180;-69
2023/01/27 15:13:29;;;;;;;16.10;13.33;;;1.70;99.90;;;;;;5029319;28;20194;-70
2023/01/27 15:16:03;;;;;;;18.93;13.30;;;1.70;99.90;;;;;;5029010;28;20211;-70
2023/01/27 15:18:45;;;;;;;16.47;13.83;;;1.70;99.90;;;;;;5013417;28;20189;-70
2023/01/27 15:21:31;;;;;;;16.33;14.00;;;1.50;99.90;;;;;;5014191;28;20269;-70
2023/01/27 15:24:36;;;;;;;17.70;13.90;;;1.50;99.90;;;;;;5013695;28;20197;-70
2023/01/27 15:27:03;;;;;;;16.87;13.40;;;1.40;99.90;;;;;;5012288;28;20220;-70
2023/01/27 15:29:30;;;;;;;17.67;14.00;;;1.50;99.90;;;;;;5013465;28;20175;-71
2023/01/27 15:32:12;;;;;;;16.23;13.33;;;1.50;99.90;;;;;;5013387;28;20651;-71
2023/01/27 15:34:38;;;;;;;19.33;13.83;;;1.50;99.90;;;;;;5013578;28;20180;-71
2023/01/27 15:37:22;;;;;;;18.17;13.50;;;1.50;99.90;;;;;;5013016;28;20203;-71
2023/01/27 15:40:02;;;;;;;19.00;13.63;;;1.50;99.90;;;;;;4995069;28;20583;-71
2023/01/27 15:42:53;;;;;;;14.93;12.67;;;1.30;99.90;;;;;;5012916;28;20695;-70
2023/01/27 15:45:27;;;;;;;17.63;13.97;;;1.20;99.90;;;;;;5013361;28;20234;-71
2023/01/27 15:47:59;;;;;;;15.07;13.10;;;1.20;99.90;;;;;;5014156;28;20204;-70
2023/01/27 15:50:29;;;;;;;15.30;13.20;;;1.20;99.90;;;;;;5011837;28;20184;-70
2023/01/27 15:53:03;;;;;;;17.10;13.50;;;1.30;99.90;;;;;;5032897;28;20184;-70
2023/01/27 15:55:36;;;;;;;16.70;13.67;;;1.30;99.90;;;;;;5012537;28;20184;-71
2023/01/27 15:58:10;;;;;;;15.93;13.30;;;1.30;99.90;;;;;;5022652;28;20210;-69
2023/01/27 16:00:37;;;;;;;17.53;13.87;;;1.40;99.90;;;;;;5033658;28;20195;-70
2023/01/27 16:03:13;;;;;;;19.77;14.53;;;1.40;99.90;;;;;;5016812;28;20675;-70
2023/01/27 16:05:55;;;;;;;17.93;13.67;;;1.40;99.90;;;;;;5017641;28;20561;-69
2023/01/27 16:08:23;;;;;;;18.77;14.53;;;1.40;99.90;;;;;;5002487;28;20183;-70
2023/01/27 16:10:48;;;;;;;16.53;13.47;;;1.40;99.90;;;;;;5015067;28;20207;-70
2023/01/27 16:13:24;;;;;;;15.97;13.23;;;1.40;99.90;;;;;;5033219;28;20249;-70
2023/01/27 16:18:42;;;;;;;17.90;13.27;;;1.40;99.90;;;;;;4990599;28;20206;-71
2023/01/27 16:21:36;;;;;;;15.37;12.93;;;1.40;99.90;;;;;;4992765;28;20248;-71
2023/01/27 16:24:44;;;;;;;18.17;14.07;;;1.40;99.90;;;;;;4943195;28;20678;-72
2023/01/27 16:27:20;;;;;;;16.07;13.03;;;1.40;99.90;;;;;;4938788;28;20261;-71
2023/01/27 16:29:54;;;;;;;14.67;12.90;;;1.40;99.90;;;;;;4992133;28;20188;-71
2023/01/27 16:32:24;;;;;;;18.67;14.07;;;1.40;99.90;;;;;;4992389;28;20193;-71
2023/01/27 16:35:03;;;;;;;18.97;14.30;;;1.30;99.90;;;;;;4975745;28;20181;-71
2023/01/27 16:37:36;;;;;;;18.33;13.77;;;1.30;99.90;;;;;;4992190;28;20224;-70
2023/01/27 16:40:18;;;;;;;15.13;13.60;;;1.40;99.90;;;;;;4978322;28;20181;-79
2023/01/27 16:42:53;;;;;;;15.87;13.87;;;1.40;99.90;;;;;;4996173;28;20196;-78
2023/01/27 16:45:23;;;;;;;17.77;14.60;;;1.40;99.90;;;;;;4978339;28;20672;-79
2023/01/27 16:47:55;;;;;;;16.30;14.13;;;1.40;99.90;;;;;;4978306;28;20210;-79
2023/01/27 16:50:37;;;;;;;14.73;13.20;;;1.50;99.90;;;;;;4978654;28;20277;-79
2023/01/27 16:53:12;;;;;;;17.47;13.80;;;1.40;99.90;;;;;;4996742;28;20275;-79
2023/01/27 16:55:39;;;;;;;16.10;14.40;;;1.40;99.90;;;;;;4997297;28;20181;-79
2023/01/27 16:58:15;;;;;;;22.20;14.93;;;1.40;99.90;;;;;;4995570;28;20211;-79
2023/01/27 17:00:41;;;;;;;19.53;14.23;;;1.30;99.90;;;;;;4983124;28;20263;-83
2023/01/27 17:03:15;;;;;;;15.80;13.87;;;1.40;99.90;;;;;;5005956;28;20218;-81
2023/01/27 17:05:41;;;;;;;18.47;14.63;;;1.30;99.90;;;;;;4996584;28;20236;-83
2023/01/27 17:08:26;;;;;;;18.20;14.00;;;1.40;99.90;;;;;;5012413;28;20252;-81
2023/01/27 17:11:14;;;;;;;15.40;13.40;;;1.30;99.90;;;;;;5012119;28;20249;-83
2023/01/27 17:13:49;;;;;;;19.10;14.17;;;1.30;99.90;;;;;;5011984;28;20204;-83
2023/01/27 17:16:28;;;;;;;19.60;14.53;;;1.40;99.90;;;;;;4990488;28;20203;-83
2023/01/27 17:19:01;;;;;;;21.60;16.17;;;1.40;99.90;;;;;;4969973;28;20548;-84
2023/01/27 17:21:40;;;;;;;17.00;15.20;;;1.40;99.90;;;;;;4979719;28;20186;-84
2023/01/27 17:24:17;;;;;;;18.80;16.20;;;1.30;99.90;;;;;;4979725;28;20188;-83
2023/01/27 17:26:47;;;;;;;19.10;15.87;;;1.30;99.90;;;;;;4982964;28;20252;-84